Time;durP1;ratioP1;P1;durP2;ratioP2;P2;SDS_P1;SDS_P2;PMS_P1;PMS_P2;Temp;Humidity;BMP_temperature;BMP_pressure;BME280_temperature;BME280_humidity;BME280_pressure;Samples;Min_cycle;Max_cycle;Signal;HPM_P1;HPM_P2
2021/07/29 00:01:37;;;;;;;5.68;2.20;;;;;;;;;;5012904;28;20037;-70
2021/07/29 00:04:03;;;;;;;4.20;1.97;;;;;;;;;;5020751;28;20033;-69
2021/07/29 00:06:28;;;;;;;5.78;1.80;;;;;;;;;;5014816;28;20673;-70
2021/07/29 00:08:53;;;;;;;3.97;1.77;;;;;;;;;;5012876;28;20458;-69
2021/07/29 00:11:19;;;;;;;3.72;1.80;;;;;;;;;;5017266;28;20091;-69
2021/07/29 00:13:44;;;;;;;4.78;2.00;;;;;;;;;;5016412;28;20025;-70
2021/07/29 00:16:10;;;;;;;3.92;1.98;;;;;;;;;;5022104;28;20026;-70
2021/07/29 00:21:19;;;;;;;4.95;1.90;;;;;;;;;;5019185;28;21261;-69
2021/07/29 00:23:46;;;;;;;3.30;1.90;;;;;;;;;;5020236;28;20025;-70
2021/07/29 00:26:11;;;;;;;3.33;2.10;;;;;;;;;;5011115;28;20034;-69
2021/07/29 00:28:36;;;;;;;4.82;2.30;;;;;;;;;;5009645;28;20036;-69
2021/07/29 00:31:01;;;;;;;3.67;2.10;;;;;;;;;;5010652;28;20300;-70
2021/07/29 00:33:27;;;;;;;5.87;2.20;;;;;;;;;;5002769;28;20033;-70
2021/07/29 00:35:52;;;;;;;4.70;1.90;;;;;;;;;;5015731;28;20276;-69
2021/07/29 00:38:17;;;;;;;3.50;1.87;;;;;;;;;;5011896;28;20272;-71
2021/07/29 00:40:42;;;;;;;3.83;2.17;;;;;;;;;;5005358;28;20276;-69
2021/07/29 00:43:07;;;;;;;4.43;1.98;;;;;;;;;;5024687;28;20883;-69
2021/07/29 00:45:32;;;;;;;3.25;2.03;;;;;;;;;;5019789;28;20079;-70
2021/07/29 00:47:58;;;;;;;5.88;2.85;;;;;;;;;;5018901;28;20033;-68
2021/07/29 00:50:23;;;;;;;3.95;1.95;;;;;;;;;;5013643;28;20489;-70
2021/07/29 00:52:48;;;;;;;4.18;2.10;;;;;;;;;;5012963;28;20021;-70
2021/07/29 00:55:14;;;;;;;4.32;2.38;;;;;;;;;;5009404;28;20025;-70
2021/07/29 00:57:39;;;;;;;2.97;2.05;;;;;;;;;;5014261;28;20105;-68
2021/07/29 01:00:05;;;;;;;3.23;2.13;;;;;;;;;;5006622;28;20041;-69
2021/07/29 01:02:30;;;;;;;3.80;2.15;;;;;;;;;;5009481;28;20339;-69
2021/07/29 01:04:55;;;;;;;5.07;2.47;;;;;;;;;;5009034;28;20034;-69
2021/07/29 01:07:20;;;;;;;4.95;2.25;;;;;;;;;;5010345;28;20022;-68
2021/07/29 01:09:45;;;;;;;4.93;2.33;;;;;;;;;;5014096;28;20120;-68
2021/07/29 01:12:11;;;;;;;3.67;2.60;;;;;;;;;;5009459;28;20304;-70
2021/07/29 01:14:36;;;;;;;4.10;2.00;;;;;;;;;;5012005;28;20363;-70
2021/07/29 01:17:01;;;;;;;4.70;2.20;;;;;;;;;;5008551;28;20285;-70
2021/07/29 01:19:27;;;;;;;6.38;2.13;;;;;;;;;;5010795;28;20022;-70
2021/07/29 01:21:53;;;;;;;3.70;2.13;;;;;;;;;;5011472;28;20493;-70
2021/07/29 01:24:19;;;;;;;5.53;2.38;;;;;;;;;;5018149;28;20022;-69
2021/07/29 01:26:44;;;;;;;3.92;2.22;;;;;;;;;;5012688;28;20042;-69
2021/07/29 01:29:09;;;;;;;4.20;2.50;;;;;;;;;;5011451;28;20023;-69
2021/07/29 01:31:34;;;;;;;3.60;2.10;;;;;;;;;;5008764;28;20080;-69
2021/07/29 01:33:59;;;;;;;4.38;2.22;;;;;;;;;;5006382;28;20037;-70
2021/07/29 01:36:25;;;;;;;7.15;2.50;;;;;;;;;;5010570;28;20287;-69
2021/07/29 01:38:50;;;;;;;3.80;2.40;;;;;;;;;;5014732;28;20026;-69
2021/07/29 01:41:15;;;;;;;2.80;1.98;;;;;;;;;;5009177;28;20030;-69
2021/07/29 01:43:40;;;;;;;5.13;2.78;;;;;;;;;;5008034;28;20501;-70
2021/07/29 01:46:05;;;;;;;4.32;2.30;;;;;;;;;;5012820;28;20406;-70
2021/07/29 01:48:31;;;;;;;4.27;2.50;;;;;;;;;;5013977;28;20057;-69
2021/07/29 01:50:56;;;;;;;3.90;2.38;;;;;;;;;;5017878;28;20292;-69
2021/07/29 01:53:22;;;;;;;3.65;2.42;;;;;;;;;;5017128;28;20499;-69
2021/07/29 01:55:47;;;;;;;3.95;2.85;;;;;;;;;;5019030;28;20014;-69
2021/07/29 01:58:13;;;;;;;6.35;3.65;;;;;;;;;;5024764;28;20029;-70
2021/07/29 02:00:39;;;;;;;6.72;3.33;;;;;;;;;;5011071;28;20037;-70
2021/07/29 02:03:04;;;;;;;6.88;3.20;;;;;;;;;;5010588;28;20330;-70
2021/07/29 02:05:30;;;;;;;9.30;3.45;;;;;;;;;;5009770;28;20034;-69
2021/07/29 02:07:55;;;;;;;5.60;3.30;;;;;;;;;;5025672;28;20078;-69
2021/07/29 02:10:20;;;;;;;7.03;3.45;;;;;;;;;;5021654;28;20033;-69
2021/07/29 02:12:46;;;;;;;7.63;3.53;;;;;;;;;;5016864;28;20018;-68
2021/07/29 02:15:11;;;;;;;4.85;2.92;;;;;;;;;;5019673;28;20041;-70
2021/07/29 02:17:37;;;;;;;6.43;3.47;;;;;;;;;;5022448;28;20677;-69
2021/07/29 02:20:02;;;;;;;7.82;3.90;;;;;;;;;;5023366;28;20139;-68
2021/07/29 02:22:27;;;;;;;8.45;3.58;;;;;;;;;;5012062;28;20135;-69
2021/07/29 02:24:52;;;;;;;6.40;3.50;;;;;;;;;;5014822;28;20033;-69
2021/07/29 02:27:18;;;;;;;8.13;3.57;;;;;;;;;;5015103;28;20579;-69
2021/07/29 02:29:44;;;;;;;9.02;3.55;;;;;;;;;;5016569;28;20752;-69
2021/07/29 02:32:09;;;;;;;5.97;3.60;;;;;;;;;;5018008;28;20555;-70
2021/07/29 02:34:34;;;;;;;5.70;3.38;;;;;;;;;;5019074;28;20126;-69
2021/07/29 02:36:59;;;;;;;6.33;3.27;;;;;;;;;;5013064;28;20524;-70
2021/07/29 02:39:24;;;;;;;6.43;3.73;;;;;;;;;;5022679;28;20276;-69
2021/07/29 02:41:50;;;;;;;5.70;3.20;;;;;;;;;;5016296;28;20273;-69
2021/07/29 02:44:16;;;;;;;5.00;2.73;;;;;;;;;;5019570;28;20433;-69
2021/07/29 02:46:41;;;;;;;6.72;3.30;;;;;;;;;;5022712;28;20771;-68
2021/07/29 02:49:06;;;;;;;4.47;2.90;;;;;;;;;;5010644;28;20152;-68
2021/07/29 02:51:31;;;;;;;5.68;2.80;;;;;;;;;;5022684;28;20030;-69
2021/07/29 02:53:56;;;;;;;5.80;2.83;;;;;;;;;;5011252;28;20022;-69
2021/07/29 02:56:21;;;;;;;4.88;2.40;;;;;;;;;;5010784;28;20281;-69
2021/07/29 02:58:47;;;;;;;3.80;2.30;;;;;;;;;;5017982;28;20679;-69
2021/07/29 03:01:13;;;;;;;4.10;2.40;;;;;;;;;;5014285;28;20291;-70
2021/07/29 03:03:38;;;;;;;5.32;2.42;;;;;;;;;;5012024;28;20100;-70
2021/07/29 03:06:03;;;;;;;6.13;2.47;;;;;;;;;;5011663;28;20346;-70
2021/07/29 03:08:29;;;;;;;3.90;2.13;;;;;;;;;;5010415;28;20277;-69
2021/07/29 03:10:57;;;;;;;3.75;2.20;;;;;;;;;;5014412;28;20091;-70
2021/07/29 03:13:23;;;;;;;4.90;1.98;;;;;;;;;;5011231;28;20057;-69
2021/07/29 03:15:48;;;;;;;4.23;2.00;;;;;;;;;;5008912;28;22059;-69
2021/07/29 03:18:13;;;;;;;4.60;2.30;;;;;;;;;;5009927;28;20275;-69
2021/07/29 03:20:39;;;;;;;3.97;2.22;;;;;;;;;;5009815;28;20312;-70
2021/07/29 03:23:04;;;;;;;6.93;2.10;;;;;;;;;;5011822;28;20492;-69
2021/07/29 03:25:30;;;;;;;4.60;2.03;;;;;;;;;;5016960;28;20421;-69
2021/07/29 03:27:55;;;;;;;2.92;1.90;;;;;;;;;;5010196;28;20458;-69
2021/07/29 03:30:20;;;;;;;4.68;2.17;;;;;;;;;;5019558;28;20091;-69
2021/07/29 03:32:45;;;;;;;3.90;2.20;;;;;;;;;;5008752;28;20037;-69
2021/07/29 03:35:10;;;;;;;3.88;1.98;;;;;;;;;;5014394;28;20292;-69
2021/07/29 03:37:35;;;;;;;3.83;2.00;;;;;;;;;;5016183;28;20144;-70
2021/07/29 03:40:04;;;;;;;5.65;2.20;;;;;;;;;;5015282;28;20041;-68
2021/07/29 03:42:30;;;;;;;6.03;2.25;;;;;;;;;;5019603;28;20052;-69
2021/07/29 03:44:55;;;;;;;3.83;1.90;;;;;;;;;;5013667;28;20129;-69
2021/07/29 03:47:20;;;;;;;4.13;2.10;;;;;;;;;;5018328;28;20616;-68
2021/07/29 03:49:45;;;;;;;3.30;2.00;;;;;;;;;;5010452;28;20041;-68
2021/07/29 03:52:11;;;;;;;3.13;1.92;;;;;;;;;;5017360;28;20759;-69
2021/07/29 03:54:36;;;;;;;4.20;2.20;;;;;;;;;;5015734;28;20269;-69
2021/07/29 03:57:01;;;;;;;3.80;2.42;;;;;;;;;;5008166;28;20362;-69
2021/07/29 03:59:26;;;;;;;5.40;2.55;;;;;;;;;;5009423;28;20029;-69
2021/07/29 04:01:51;;;;;;;3.75;1.95;;;;;;;;;;5011126;28;20038;-69
2021/07/29 04:04:17;;;;;;;3.50;1.80;;;;;;;;;;5021271;28;20490;-70
2021/07/29 04:06:42;;;;;;;3.35;2.30;;;;;;;;;;5022678;28;20418;-70
2021/07/29 04:09:07;;;;;;;2.80;1.80;;;;;;;;;;5012893;28;20390;-69
2021/07/29 04:11:32;;;;;;;3.60;2.10;;;;;;;;;;5009113;28;20296;-69
2021/07/29 04:13:57;;;;;;;4.85;2.42;;;;;;;;;;5009725;28;20271;-69
2021/07/29 04:16:22;;;;;;;4.28;2.10;;;;;;;;;;5013195;28;20018;-69
2021/07/29 04:18:47;;;;;;;3.95;2.00;;;;;;;;;;5008306;28;20032;-69
2021/07/29 04:21:14;;;;;;;6.13;2.13;;;;;;;;;;5009203;28;20313;-69
2021/07/29 04:23:39;;;;;;;3.78;2.20;;;;;;;;;;5008088;28;20798;-70
2021/07/29 04:26:04;;;;;;;3.30;2.10;;;;;;;;;;5014372;28;20033;-71
2021/07/29 04:28:29;;;;;;;6.87;2.50;;;;;;;;;;5015736;28;20026;-69
2021/07/29 04:30:55;;;;;;;10.27;2.10;;;;;;;;;;5008458;28;20730;-68
2021/07/29 04:33:20;;;;;;;3.33;2.00;;;;;;;;;;5012442;28;20283;-69
2021/07/29 04:35:45;;;;;;;2.90;1.90;;;;;;;;;;5022692;28;20359;-69
2021/07/29 04:38:10;;;;;;;3.60;2.08;;;;;;;;;;5008703;28;20276;-69
2021/07/29 04:40:35;;;;;;;4.50;1.80;;;;;;;;;;5014018;28;20289;-69
2021/07/29 04:43:00;;;;;;;3.03;1.73;;;;;;;;;;5011140;28;20124;-70
2021/07/29 04:45:26;;;;;;;3.27;1.83;;;;;;;;;;5023725;28;20627;-69
2021/07/29 04:47:51;;;;;;;4.03;1.90;;;;;;;;;;5020960;28;20311;-69
2021/07/29 04:50:16;;;;;;;4.25;2.00;;;;;;;;;;5008336;28;20296;-69
2021/07/29 04:52:42;;;;;;;3.13;1.70;;;;;;;;;;5009981;28;20030;-68
2021/07/29 04:55:07;;;;;;;3.57;1.70;;;;;;;;;;5010164;28;20477;-69
2021/07/29 04:57:32;;;;;;;4.28;1.63;;;;;;;;;;5008822;28;20269;-69
2021/07/29 04:59:57;;;;;;;3.00;1.80;;;;;;;;;;5016437;28;20105;-69
2021/07/29 05:02:22;;;;;;;3.47;1.60;;;;;;;;;;5007457;28;20810;-68
2021/07/29 05:04:48;;;;;;;3.20;1.77;;;;;;;;;;5014950;28;20265;-69
2021/07/29 05:07:13;;;;;;;4.47;1.90;;;;;;;;;;5008394;28;20375;-68
2021/07/29 05:09:38;;;;;;;3.05;1.55;;;;;;;;;;5012854;28;20045;-69
2021/07/29 05:12:04;;;;;;;2.33;1.63;;;;;;;;;;5009035;28;20188;-70
2021/07/29 05:14:29;;;;;;;3.88;1.60;;;;;;;;;;5009649;28;20105;-68
2021/07/29 05:16:58;;;;;;;3.07;1.70;;;;;;;;;;5012183;28;20413;-69
2021/07/29 05:19:23;;;;;;;2.10;1.60;;;;;;;;;;5008289;28;20272;-68
2021/07/29 05:21:48;;;;;;;2.90;1.70;;;;;;;;;;5020198;28;20034;-70
2021/07/29 05:24:13;;;;;;;3.00;1.70;;;;;;;;;;5012180;28;20302;-69
2021/07/29 05:26:40;;;;;;;2.50;1.40;;;;;;;;;;5015192;28;20029;-65
2021/07/29 05:29:05;;;;;;;3.67;1.55;;;;;;;;;;5016290;28;20312;-63
2021/07/29 05:31:31;;;;;;;4.03;1.50;;;;;;;;;;5013000;28;20062;-64
2021/07/29 05:33:56;;;;;;;4.00;1.60;;;;;;;;;;5011997;28;20273;-63
2021/07/29 05:36:21;;;;;;;4.73;1.73;;;;;;;;;;5013694;28;20116;-63
2021/07/29 05:38:46;;;;;;;2.63;1.40;;;;;;;;;;5015081;28;20778;-64
2021/07/29 05:41:11;;;;;;;3.00;1.63;;;;;;;;;;5012961;28;20281;-64
2021/07/29 05:43:37;;;;;;;1.85;1.38;;;;;;;;;;5017830;28;20810;-64
2021/07/29 05:46:06;;;;;;;3.75;1.83;;;;;;;;;;5013180;28;20057;-64
2021/07/29 05:48:31;;;;;;;4.15;1.58;;;;;;;;;;5013978;28;20022;-63
2021/07/29 05:50:56;;;;;;;2.90;1.43;;;;;;;;;;5018061;28;20052;-63
2021/07/29 05:53:23;;;;;;;5.30;1.70;;;;;;;;;;5017345;28;20264;-63
2021/07/29 05:55:48;;;;;;;2.78;1.60;;;;;;;;;;5018385;28;20284;-62
2021/07/29 05:58:14;;;;;;;3.40;1.77;;;;;;;;;;5022380;28;20329;-63
2021/07/29 06:00:39;;;;;;;1.97;1.40;;;;;;;;;;5020602;28;20260;-64
2021/07/29 06:03:04;;;;;;;3.00;1.67;;;;;;;;;;5020175;28;20577;-64
2021/07/29 06:05:29;;;;;;;2.55;1.55;;;;;;;;;;5018926;28;20372;-63
2021/07/29 06:07:54;;;;;;;3.57;1.50;;;;;;;;;;5025286;28;20105;-64
2021/07/29 06:10:19;;;;;;;3.77;1.60;;;;;;;;;;5010436;28;20293;-64
2021/07/29 06:12:45;;;;;;;1.90;1.30;;;;;;;;;;5017844;28;20030;-64
2021/07/29 06:15:10;;;;;;;5.80;1.83;;;;;;;;;;5016847;28;20844;-64
2021/07/29 06:17:37;;;;;;;3.22;1.50;;;;;;;;;;5017693;28;20272;-64
2021/07/29 06:20:07;;;;;;;3.05;1.58;;;;;;;;;;5016741;28;20496;-63
2021/07/29 06:22:32;;;;;;;5.70;1.42;;;;;;;;;;5013944;28;20433;-64
2021/07/29 06:24:58;;;;;;;2.63;1.55;;;;;;;;;;5016367;28;20018;-65
2021/07/29 06:27:23;;;;;;;3.75;1.63;;;;;;;;;;5014482;28;20017;-64
2021/07/29 06:29:48;;;;;;;2.03;1.55;;;;;;;;;;5024474;28;20044;-64
2021/07/29 06:32:14;;;;;;;2.37;1.43;;;;;;;;;;5009774;28;20029;-62
2021/07/29 06:34:39;;;;;;;2.40;1.55;;;;;;;;;;5011785;28;20268;-62
2021/07/29 06:37:04;;;;;;;3.50;1.50;;;;;;;;;;5010606;28;20041;-62
2021/07/29 06:39:30;;;;;;;3.53;1.67;;;;;;;;;;5015128;28;20028;-63
2021/07/29 06:41:55;;;;;;;3.53;1.95;;;;;;;;;;5022318;28;20037;-63
2021/07/29 06:44:20;;;;;;;4.95;2.17;;;;;;;;;;5016740;28;20553;-61
2021/07/29 06:46:45;;;;;;;4.67;1.73;;;;;;;;;;5027441;28;20042;-62
2021/07/29 06:49:10;;;;;;;3.33;1.77;;;;;;;;;;5006890;28;20276;-62
2021/07/29 06:51:36;;;;;;;2.60;1.50;;;;;;;;;;5009437;28;20384;-62
2021/07/29 06:54:04;;;;;;;2.17;1.58;;;;;;;;;;5011432;28;20363;-62
2021/07/29 06:56:29;;;;;;;4.07;1.75;;;;;;;;;;5014191;28;20021;-62
2021/07/29 06:58:54;;;;;;;2.97;1.75;;;;;;;;;;5024724;28;20021;-61
2021/07/29 07:01:19;;;;;;;4.87;1.70;;;;;;;;;;5010832;28;20017;-62
2021/07/29 07:03:46;;;;;;;3.00;1.50;;;;;;;;;;5016476;28;20291;-62
2021/07/29 07:06:11;;;;;;;2.58;1.63;;;;;;;;;;5021703;28;20022;-62
2021/07/29 07:08:36;;;;;;;3.70;1.80;;;;;;;;;;5016987;28;20025;-62
2021/07/29 07:11:02;;;;;;;3.20;1.83;;;;;;;;;;5011579;28;20720;-62
2021/07/29 07:13:27;;;;;;;3.20;1.70;;;;;;;;;;5011002;28;20747;-61
2021/07/29 07:15:52;;;;;;;4.20;1.80;;;;;;;;;;5016466;28;20876;-64
2021/07/29 07:18:18;;;;;;;2.97;1.73;;;;;;;;;;5027588;28;20307;-65
2021/07/29 07:20:43;;;;;;;3.63;2.10;;;;;;;;;;5014272;28;20036;-65
2021/07/29 07:23:08;;;;;;;3.83;2.00;;;;;;;;;;5019229;28;20021;-65
2021/07/29 07:25:37;;;;;;;3.83;2.05;;;;;;;;;;5016862;28;20026;-65
2021/07/29 07:28:03;;;;;;;3.35;1.90;;;;;;;;;;5023969;28;20026;-66
2021/07/29 07:30:28;;;;;;;3.20;2.05;;;;;;;;;;5030319;28;20030;-65
2021/07/29 07:32:53;;;;;;;3.70;2.20;;;;;;;;;;5023367;28;20017;-65
2021/07/29 07:35:18;;;;;;;3.13;2.30;;;;;;;;;;5026420;28;20021;-65
2021/07/29 07:37:43;;;;;;;4.83;2.13;;;;;;;;;;5010914;28;20022;-65
2021/07/29 07:40:09;;;;;;;3.70;2.20;;;;;;;;;;5007903;28;20295;-64
2021/07/29 07:42:35;;;;;;;3.35;2.10;;;;;;;;;;5003593;28;20101;-65
2021/07/29 07:45:00;;;;;;;5.20;2.47;;;;;;;;;;5022886;28;20171;-65
2021/07/29 07:47:25;;;;;;;3.20;2.03;;;;;;;;;;5037669;28;20041;-64
2021/07/29 07:49:50;;;;;;;4.40;2.10;;;;;;;;;;5010829;28;20396;-64
2021/07/29 07:52:15;;;;;;;3.93;1.97;;;;;;;;;;5010914;28;20034;-64
2021/07/29 07:54:41;;;;;;;2.88;2.10;;;;;;;;;;5009322;28;20281;-64
2021/07/29 07:57:06;;;;;;;2.67;2.00;;;;;;;;;;5018150;28;20034;-66
2021/07/29 07:59:35;;;;;;;2.92;1.90;;;;;;;;;;5009549;28;20025;-65
2021/07/29 08:02:00;;;;;;;3.72;1.90;;;;;;;;;;5019642;28;20022;-65
2021/07/29 08:04:27;;;;;;;5.75;2.33;;;;;;;;;;5020326;28;20106;-64
2021/07/29 08:06:52;;;;;;;3.33;2.03;;;;;;;;;;5029187;28;20021;-64
2021/07/29 08:09:17;;;;;;;5.17;2.33;;;;;;;;;;5011726;28;20029;-64
2021/07/29 08:11:42;;;;;;;3.50;2.33;;;;;;;;;;5012922;28;20293;-65
2021/07/29 08:14:08;;;;;;;5.30;2.42;;;;;;;;;;5029295;28;20253;-65
2021/07/29 08:16:35;;;;;;;5.57;2.20;;;;;;;;;;5021398;28;20308;-66
2021/07/29 08:19:00;;;;;;;3.58;2.40;;;;;;;;;;5009753;28;20304;-65
2021/07/29 08:21:25;;;;;;;4.45;2.15;;;;;;;;;;5009988;28;20069;-65
2021/07/29 08:23:50;;;;;;;2.93;2.23;;;;;;;;;;5023754;28;20103;-65
2021/07/29 08:26:15;;;;;;;3.95;2.35;;;;;;;;;;5022254;28;20724;-65
2021/07/29 08:28:42;;;;;;;4.03;2.30;;;;;;;;;;5007467;28;20491;-65
2021/07/29 08:31:11;;;;;;;3.72;1.90;;;;;;;;;;5009088;28;20037;-65
2021/07/29 08:33:36;;;;;;;3.63;2.10;;;;;;;;;;5006083;28;20029;-66
2021/07/29 08:36:02;;;;;;;3.50;2.17;;;;;;;;;;5000443;28;20030;-65
2021/07/29 08:38:27;;;;;;;5.38;2.50;;;;;;;;;;5014114;28;20010;-66
2021/07/29 08:40:55;;;;;;;3.47;2.20;;;;;;;;;;5007365;28;20462;-65
2021/07/29 08:43:21;;;;;;;3.65;2.28;;;;;;;;;;5016080;28;20041;-65
2021/07/29 08:45:50;;;;;;;5.53;2.60;;;;;;;;;;5003747;28;20539;-66
2021/07/29 08:48:17;;;;;;;6.22;2.45;;;;;;;;;;5005983;28;20065;-66
2021/07/29 08:50:43;;;;;;;2.83;2.20;;;;;;;;;;5005088;28;20025;-65
2021/07/29 08:53:08;;;;;;;4.30;2.33;;;;;;;;;;5005834;28;20346;-65
2021/07/29 08:55:33;;;;;;;4.13;2.55;;;;;;;;;;5008172;28;20022;-65
2021/07/29 08:57:59;;;;;;;5.27;2.27;;;;;;;;;;5004457;28;20026;-64
2021/07/29 09:00:24;;;;;;;5.40;2.20;;;;;;;;;;4997373;28;20348;-65
2021/07/29 09:02:49;;;;;;;3.45;2.33;;;;;;;;;;5010304;28;20069;-64
2021/07/29 09:05:21;;;;;;;4.97;2.63;;;;;;;;;;5008739;28;20075;-64
2021/07/29 09:08:02;;;;;;;4.53;2.70;;;;;;;;;;5019237;28;20046;-65
2021/07/29 09:10:27;;;;;;;3.25;2.30;;;;;;;;;;5009469;28;20128;-65
2021/07/29 09:13:13;;;;;;;4.73;2.93;;;;;;;;;;5013411;28;20104;-64
2021/07/29 09:15:39;;;;;;;4.15;2.53;;;;;;;;;;5028523;28;20266;-64
2021/07/29 09:18:05;;;;;;;5.82;2.95;;;;;;;;;;5015595;28;20030;-64
2021/07/29 09:20:30;;;;;;;7.72;2.97;;;;;;;;;;5028496;28;20614;-64
2021/07/29 09:22:56;;;;;;;5.68;2.85;;;;;;;;;;5028732;28;20082;-65
2021/07/29 09:25:22;;;;;;;4.50;2.70;;;;;;;;;;5018085;28;20021;-64
2021/07/29 09:27:49;;;;;;;4.35;2.50;;;;;;;;;;5009998;28;20469;-65
2021/07/29 09:30:14;;;;;;;5.20;3.45;;;;;;;;;;5009591;28;20473;-65
2021/07/29 09:32:54;;;;;;;6.13;3.03;;;;;;;;;;5015845;28;20022;-65
2021/07/29 09:35:46;;;;;;;4.88;2.92;;;;;;;;;;5009566;28;20029;-65
2021/07/29 09:38:28;;;;;;;4.60;2.35;;;;;;;;;;5005411;28;20099;-65
2021/07/29 09:41:00;;;;;;;4.18;2.95;;;;;;;;;;5009787;28;20084;-64
2021/07/29 09:43:26;;;;;;;5.70;2.88;;;;;;;;;;5015305;28;20441;-67
2021/07/29 09:45:55;;;;;;;4.93;2.72;;;;;;;;;;5022839;28;20777;-66
2021/07/29 09:48:23;;;;;;;5.40;3.10;;;;;;;;;;5013051;28;20105;-66
2021/07/29 09:50:50;;;;;;;4.93;3.20;;;;;;;;;;5018210;28;20047;-65
2021/07/29 09:53:15;;;;;;;4.82;2.95;;;;;;;;;;5007209;28;20189;-64
2021/07/29 09:55:40;;;;;;;6.13;3.00;;;;;;;;;;5015087;28;20406;-65
2021/07/29 09:58:05;;;;;;;4.63;2.90;;;;;;;;;;5018543;28;20029;-65
2021/07/29 10:00:34;;;;;;;4.83;2.70;;;;;;;;;;5012211;28;20292;-66
2021/07/29 10:03:00;;;;;;;6.57;2.92;;;;;;;;;;5014645;28;20264;-65
2021/07/29 10:05:45;;;;;;;4.80;3.10;;;;;;;;;;5025396;28;20037;-66
2021/07/29 10:08:15;;;;;;;7.00;3.15;;;;;;;;;;5031175;28;20018;-65
2021/07/29 10:10:42;;;;;;;4.90;3.00;;;;;;;;;;5025357;28;20087;-65
2021/07/29 10:13:07;;;;;;;5.53;2.88;;;;;;;;;;5019389;28;20105;-64
2021/07/29 10:15:40;;;;;;;4.47;2.80;;;;;;;;;;5029097;28;20117;-66
2021/07/29 10:18:06;;;;;;;5.05;2.83;;;;;;;;;;5018268;28;20371;-65
2021/07/29 10:20:32;;;;;;;5.00;2.83;;;;;;;;;;5026304;28;20030;-65
2021/07/29 10:23:13;;;;;;;5.43;3.33;;;;;;;;;;5012620;28;20018;-65
2021/07/29 10:25:53;;;;;;;5.10;2.88;;;;;;;;;;5018578;28;20473;-65
2021/07/29 10:28:24;;;;;;;3.97;3.20;;;;;;;;;;5016493;28;20042;-66
2021/07/29 10:30:53;;;;;;;5.90;3.40;;;;;;;;;;5023849;28;20029;-66
2021/07/29 10:33:18;;;;;;;5.60;3.35;;;;;;;;;;5015960;28;20624;-66
2021/07/29 10:35:44;;;;;;;5.50;3.20;;;;;;;;;;5020266;28;20116;-66
2021/07/29 10:38:09;;;;;;;5.13;2.92;;;;;;;;;;5022888;28;20018;-64
2021/07/29 10:40:35;;;;;;;4.53;3.30;;;;;;;;;;5013446;28;20053;-66
2021/07/29 10:43:19;;;;;;;6.38;3.42;;;;;;;;;;5014103;28;20494;-65
2021/07/29 10:45:48;;;;;;;6.88;3.30;;;;;;;;;;5015299;28;20080;-66
2021/07/29 10:48:32;;;;;;;7.43;3.65;;;;;;;;;;5031107;28;20028;-65
2021/07/29 10:51:29;;;;;;;6.35;3.47;;;;;;;;;;5024340;28;20040;-66
2021/07/29 10:53:57;;;;;;;5.03;3.00;;;;;;;;;;5004922;28;20033;-65
2021/07/29 10:56:23;;;;;;;6.93;3.35;;;;;;;;;;4999580;28;20782;-66
2021/07/29 10:58:49;;;;;;;4.30;2.95;;;;;;;;;;5004630;28;20041;-65
2021/07/29 11:01:15;;;;;;;5.38;3.13;;;;;;;;;;5006205;28;20018;-65
2021/07/29 11:04:00;;;;;;;4.35;3.30;;;;;;;;;;4997656;28;20037;-64
2021/07/29 11:06:37;;;;;;;5.57;3.28;;;;;;;;;;4998323;28;20030;-65
2021/07/29 11:09:22;;;;;;;5.15;3.38;;;;;;;;;;5007305;28;20026;-65
2021/07/29 11:11:49;;;;;;;5.07;3.30;;;;;;;;;;5000945;28;20101;-64
2021/07/29 11:14:19;;;;;;;4.80;3.10;;;;;;;;;;4981351;28;20638;-65
2021/07/29 11:16:44;;;;;;;5.45;3.50;;;;;;;;;;4996327;28;20129;-66
2021/07/29 11:19:09;;;;;;;4.53;3.20;;;;;;;;;;4993681;28;20106;-67
2021/07/29 11:21:35;;;;;;;6.50;3.00;;;;;;;;;;4989209;28;20749;-66
2021/07/29 11:24:00;;;;;;;5.88;3.08;;;;;;;;;;4988642;28;20277;-65
2021/07/29 11:26:26;;;;;;;5.45;3.80;;;;;;;;;;5008112;28;20022;-64
2021/07/29 11:29:10;;;;;;;5.28;3.70;;;;;;;;;;5000902;28;20030;-66
2021/07/29 11:31:36;;;;;;;5.25;3.38;;;;;;;;;;5018816;28;20380;-65
2021/07/29 11:34:01;;;;;;;5.90;3.22;;;;;;;;;;5029896;28;20021;-65
2021/07/29 11:36:26;;;;;;;6.47;3.50;;;;;;;;;;5015014;28;20026;-65
2021/07/29 11:38:55;;;;;;;6.10;3.35;;;;;;;;;;5024507;28;20026;-64
2021/07/29 11:41:20;;;;;;;6.28;3.13;;;;;;;;;;5005024;28;20441;-66
2021/07/29 11:43:50;;;;;;;5.27;3.13;;;;;;;;;;5010687;28;20161;-65
2021/07/29 11:46:16;;;;;;;5.53;2.90;;;;;;;;;;5004169;28;20432;-65
2021/07/29 11:48:41;;;;;;;11.43;3.30;;;;;;;;;;5017396;28;20025;-66
2021/07/29 11:51:13;;;;;;;5.70;3.30;;;;;;;;;;5016549;28;20493;-65
2021/07/29 11:53:40;;;;;;;5.50;3.10;;;;;;;;;;5017343;28;20493;-64
2021/07/29 11:56:05;;;;;;;4.20;2.92;;;;;;;;;;5014709;28;20080;-66
2021/07/29 11:58:31;;;;;;;5.05;3.08;;;;;;;;;;5019237;28;20029;-65
2021/07/29 12:00:56;;;;;;;4.80;3.53;;;;;;;;;;5009282;28;20044;-65
2021/07/29 12:03:29;;;;;;;4.70;3.37;;;;;;;;;;5010617;28;20022;-65
2021/07/29 12:05:56;;;;;;;5.20;2.85;;;;;;;;;;5010838;28;20269;-65
2021/07/29 12:08:21;;;;;;;4.05;2.75;;;;;;;;;;5014964;28;20049;-65
2021/07/29 12:10:50;;;;;;;6.30;3.10;;;;;;;;;;5021876;28;20077;-64
2021/07/29 12:13:17;;;;;;;4.70;3.30;;;;;;;;;;5006520;28;20097;-65
2021/07/29 12:15:46;;;;;;;4.78;3.05;;;;;;;;;;5021544;28;20025;-65
2021/07/29 12:18:15;;;;;;;4.65;3.00;;;;;;;;;;5018398;28;20025;-65
2021/07/29 12:20:41;;;;;;;3.78;2.85;;;;;;;;;;5022433;28;20096;-66
2021/07/29 12:23:10;;;;;;;4.47;3.03;;;;;;;;;;5024226;28;20378;-65
2021/07/29 12:25:36;;;;;;;4.47;3.60;;;;;;;;;;5017794;28;20053;-65
2021/07/29 12:28:01;;;;;;;5.03;3.33;;;;;;;;;;5021060;28;20053;-65
2021/07/29 12:30:29;;;;;;;4.77;3.23;;;;;;;;;;5017854;28;20759;-65
2021/07/29 12:33:04;;;;;;;5.65;2.90;;;;;;;;;;5020688;28;20105;-64
2021/07/29 12:35:29;;;;;;;5.95;3.00;;;;;;;;;;5016244;28;20067;-64
2021/07/29 12:37:58;;;;;;;5.60;3.38;;;;;;;;;;5028801;28;20026;-65
2021/07/29 12:40:24;;;;;;;5.17;3.07;;;;;;;;;;5018972;28;20026;-65
2021/07/29 12:42:50;;;;;;;7.07;2.85;;;;;;;;;;5019766;28;20049;-64
2021/07/29 12:45:15;;;;;;;4.07;2.80;;;;;;;;;;5009166;28;20026;-65
2021/07/29 12:47:42;;;;;;;3.92;2.90;;;;;;;;;;5021408;28;20404;-64
2021/07/29 12:50:07;;;;;;;4.45;3.00;;;;;;;;;;5009574;28;20034;-63
2021/07/29 12:52:32;;;;;;;4.35;2.97;;;;;;;;;;5017162;28;20025;-64
2021/07/29 12:54:58;;;;;;;4.20;3.13;;;;;;;;;;5012245;28;20389;-64
2021/07/29 12:57:24;;;;;;;5.13;2.97;;;;;;;;;;5024657;28;20029;-63
2021/07/29 12:59:49;;;;;;;4.95;3.20;;;;;;;;;;5019934;28;20041;-63
2021/07/29 13:02:14;;;;;;;4.27;2.93;;;;;;;;;;5011262;28;20026;-63
2021/07/29 13:04:39;;;;;;;4.07;2.58;;;;;;;;;;5014217;28;20030;-64
2021/07/29 13:07:04;;;;;;;3.63;2.78;;;;;;;;;;5013998;28;20018;-63
2021/07/29 13:09:29;;;;;;;5.67;2.87;;;;;;;;;;5010991;28;20072;-64
2021/07/29 13:11:55;;;;;;;4.63;3.10;;;;;;;;;;5010676;28;20038;-65
2021/07/29 13:14:20;;;;;;;5.30;3.33;;;;;;;;;;5028129;28;20397;-64
2021/07/29 13:16:45;;;;;;;4.25;2.95;;;;;;;;;;5010819;28;20049;-63
2021/07/29 13:19:10;;;;;;;4.47;3.07;;;;;;;;;;5009320;28;20026;-64
2021/07/29 13:21:36;;;;;;;3.73;2.50;;;;;;;;;;5014289;28;20104;-65
2021/07/29 13:24:01;;;;;;;5.57;3.30;;;;;;;;;;5028243;28;20017;-63
2021/07/29 13:26:27;;;;;;;4.43;3.10;;;;;;;;;;5013465;28;20054;-64
2021/07/29 13:28:52;;;;;;;3.85;2.70;;;;;;;;;;5026188;28;20760;-64
2021/07/29 13:31:17;;;;;;;3.40;2.70;;;;;;;;;;5022510;28;20116;-64
2021/07/29 13:33:42;;;;;;;5.00;3.07;;;;;;;;;;5024739;28;20064;-63
2021/07/29 13:36:07;;;;;;;4.95;3.45;;;;;;;;;;5011371;28;20334;-63
2021/07/29 13:38:33;;;;;;;3.92;2.55;;;;;;;;;;5012425;28;20053;-64
2021/07/29 13:40:58;;;;;;;3.60;2.90;;;;;;;;;;5004851;28;20136;-63
2021/07/29 13:43:23;;;;;;;4.50;3.10;;;;;;;;;;5007546;28;20046;-63
2021/07/29 13:45:48;;;;;;;5.53;3.25;;;;;;;;;;5016091;28;20287;-64
2021/07/29 13:48:13;;;;;;;4.17;3.00;;;;;;;;;;5014789;28;20630;-63
2021/07/29 13:50:40;;;;;;;6.15;3.33;;;;;;;;;;5012527;28;20310;-64
2021/07/29 13:53:06;;;;;;;4.43;2.80;;;;;;;;;;5013540;28;20022;-63
2021/07/29 13:55:31;;;;;;;5.53;3.17;;;;;;;;;;5019067;28;20026;-62
2021/07/29 13:57:57;;;;;;;5.50;3.27;;;;;;;;;;5013340;28;20020;-63
2021/07/29 14:00:22;;;;;;;4.93;2.90;;;;;;;;;;5011818;28;20022;-63
2021/07/29 14:02:47;;;;;;;4.95;3.30;;;;;;;;;;5024837;28;20025;-63
2021/07/29 14:05:13;;;;;;;4.07;3.05;;;;;;;;;;5017837;28;20052;-63
2021/07/29 14:07:39;;;;;;;4.55;3.25;;;;;;;;;;5023104;28;20432;-63
2021/07/29 14:10:05;;;;;;;4.30;2.97;;;;;;;;;;5021276;28;20569;-62
2021/07/29 14:12:31;;;;;;;5.45;2.88;;;;;;;;;;5024890;28;20032;-63
2021/07/29 14:14:57;;;;;;;4.40;3.03;;;;;;;;;;5015609;28;20080;-63
2021/07/29 14:24:40;;;;;;;4.63;3.00;;;;;;;;;;5022689;28;20036;-63
2021/07/29 14:27:05;;;;;;;5.53;3.30;;;;;;;;;;5014310;28;20371;-63
2021/07/29 14:29:31;;;;;;;4.30;3.43;;;;;;;;;;5017914;28;20029;-62
2021/07/29 14:31:56;;;;;;;4.77;3.30;;;;;;;;;;5020797;28;20802;-62
2021/07/29 14:34:21;;;;;;;4.87;3.50;;;;;;;;;;5014607;28;20252;-63
2021/07/29 14:36:46;;;;;;;5.77;3.00;;;;;;;;;;5011571;28;20334;-63
2021/07/29 14:39:11;;;;;;;5.43;3.70;;;;;;;;;;5019598;28;20343;-63
2021/07/29 14:41:37;;;;;;;6.45;3.03;;;;;;;;;;5020231;28;20026;-63
2021/07/29 14:44:02;;;;;;;4.20;2.93;;;;;;;;;;5016016;28;20053;-63
2021/07/29 14:49:20;;;;;;;4.53;3.38;;;;;;;;;;5014203;28;20076;-63
2021/07/29 14:51:49;;;;;;;;;;;;;;;;;;5014781;28;20405;-63